sensor_id;sensor_type;location;lat;lon;timestamp;P1;durP1;ratioP1;P2;durP2;ratioP2
77944;SDS011;67142;47.404;-1.384;2023-04-06T00:01:39;21.50;;;19.20;;
77944;SDS011;67142;47.404;-1.384;2023-04-06T00:04:05;21.90;;;19.10;;
77944;SDS011;67142;47.404;-1.384;2023-04-06T00:06:32;21.83;;;19.50;;
77944;SDS011;67142;47.404;-1.384;2023-04-06T00:08:58;20.90;;;18.67;;
77944;SDS011;67142;47.404;-1.384;2023-04-06T00:11:24;22.65;;;19.85;;
77944;SDS011;67142;47.404;-1.384;2023-04-06T00:13:50;22.13;;;19.83;;
77944;SDS011;67142;47.404;-1.384;2023-04-06T00:16:17;21.60;;;19.40;;
77944;SDS011;67142;47.404;-1.384;2023-04-06T00:18:43;21.48;;;19.25;;
77944;SDS011;67142;47.404;-1.384;2023-04-06T00:21:13;22.27;;;19.48;;
77944;SDS011;67142;47.404;-1.384;2023-04-06T00:23:39;22.33;;;18.50;;
77944;SDS011;67142;47.404;-1.384;2023-04-06T00:26:05;23.30;;;19.33;;
77944;SDS011;67142;47.404;-1.384;2023-04-06T00:28:31;21.87;;;19.67;;
77944;SDS011;67142;47.404;-1.384;2023-04-06T00:30:57;21.75;;;18.38;;
77944;SDS011;67142;47.404;-1.384;2023-04-06T00:33:23;21.88;;;19.33;;
77944;SDS011;67142;47.404;-1.384;2023-04-06T00:35:50;21.27;;;18.38;;
77944;SDS011;67142;47.404;-1.384;2023-04-06T00:38:16;22.92;;;20.13;;
77944;SDS011;67142;47.404;-1.384;2023-04-06T00:40:45;22.10;;;18.90;;
77944;SDS011;67142;47.404;-1.384;2023-04-06T00:43:11;22.70;;;19.75;;
77944;SDS011;67142;47.404;-1.384;2023-04-06T00:45:38;21.60;;;19.30;;
77944;SDS011;67142;47.404;-1.384;2023-04-06T00:48:05;22.95;;;19.45;;
77944;SDS011;67142;47.404;-1.384;2023-04-06T00:50:31;21.48;;;18.95;;
77944;SDS011;67142;47.404;-1.384;2023-04-06T00:52:58;21.93;;;19.33;;
77944;SDS011;67142;47.404;-1.384;2023-04-06T00:55:24;21.90;;;19.58;;
77944;SDS011;67142;47.404;-1.384;2023-04-06T00:57:51;21.30;;;19.02;;
77944;SDS011;67142;47.404;-1.384;2023-04-06T01:00:17;21.88;;;19.02;;
77944;SDS011;67142;47.404;-1.384;2023-04-06T01:02:43;20.77;;;18.60;;
77944;SDS011;67142;47.404;-1.384;2023-04-06T01:05:10;20.30;;;18.30;;
77944;SDS011;67142;47.404;-1.384;2023-04-06T01:07:36;21.30;;;19.10;;
77944;SDS011;67142;47.404;-1.384;2023-04-06T01:10:03;20.88;;;18.60;;
77944;SDS011;67142;47.404;-1.384;2023-04-06T01:12:29;21.23;;;18.75;;
77944;SDS011;67142;47.404;-1.384;2023-04-06T01:14:55;21.40;;;19.05;;
77944;SDS011;67142;47.404;-1.384;2023-04-06T01:17:22;20.53;;;18.43;;
77944;SDS011;67142;47.404;-1.384;2023-04-06T01:19:48;20.38;;;18.23;;
77944;SDS011;67142;47.404;-1.384;2023-04-06T01:22:18;21.45;;;19.25;;
77944;SDS011;67142;47.404;-1.384;2023-04-06T01:24:45;20.75;;;18.75;;
77944;SDS011;67142;47.404;-1.384;2023-04-06T01:27:11;21.60;;;19.40;;
77944;SDS011;67142;47.404;-1.384;2023-04-06T01:29:37;20.97;;;18.70;;
77944;SDS011;67142;47.404;-1.384;2023-04-06T01:32:06;20.88;;;18.13;;
77944;SDS011;67142;47.404;-1.384;2023-04-06T01:34:32;23.85;;;18.13;;
77944;SDS011;67142;47.404;-1.384;2023-04-06T01:36:58;21.90;;;18.38;;
77944;SDS011;67142;47.404;-1.384;2023-04-06T01:39:24;21.95;;;18.50;;
77944;SDS011;67142;47.404;-1.384;2023-04-06T01:41:51;19.90;;;17.80;;
77944;SDS011;67142;47.404;-1.384;2023-04-06T01:44:17;19.17;;;17.27;;
77944;SDS011;67142;47.404;-1.384;2023-04-06T01:46:46;20.38;;;18.33;;
77944;SDS011;67142;47.404;-1.384;2023-04-06T01:49:12;19.88;;;17.88;;
77944;SDS011;67142;47.404;-1.384;2023-04-06T01:51:38;20.52;;;18.35;;
77944;SDS011;67142;47.404;-1.384;2023-04-06T01:54:04;20.63;;;18.33;;
77944;SDS011;67142;47.404;-1.384;2023-04-06T01:56:30;20.38;;;18.23;;
77944;SDS011;67142;47.404;-1.384;2023-04-06T01:58:56;20.70;;;18.33;;
77944;SDS011;67142;47.404;-1.384;2023-04-06T02:01:22;20.27;;;17.67;;
77944;SDS011;67142;47.404;-1.384;2023-04-06T02:03:48;20.83;;;18.70;;
77944;SDS011;67142;47.404;-1.384;2023-04-06T02:06:15;19.87;;;17.83;;
77944;SDS011;67142;47.404;-1.384;2023-04-06T02:08:41;19.85;;;17.90;;
77944;SDS011;67142;47.404;-1.384;2023-04-06T02:11:07;20.40;;;18.40;;
77944;SDS011;67142;47.404;-1.384;2023-04-06T02:13:33;20.42;;;18.40;;
77944;SDS011;67142;47.404;-1.384;2023-04-06T02:15:59;20.17;;;17.67;;
77944;SDS011;67142;47.404;-1.384;2023-04-06T02:18:27;20.10;;;17.90;;
77944;SDS011;67142;47.404;-1.384;2023-04-06T02:20:53;20.58;;;18.42;;
77944;SDS011;67142;47.404;-1.384;2023-04-06T02:23:19;21.05;;;18.40;;
77944;SDS011;67142;47.404;-1.384;2023-04-06T02:25:45;20.33;;;18.23;;
77944;SDS011;67142;47.404;-1.384;2023-04-06T02:28:11;20.77;;;18.67;;
77944;SDS011;67142;47.404;-1.384;2023-04-06T02:30:37;19.73;;;17.50;;
77944;SDS011;67142;47.404;-1.384;2023-04-06T02:33:03;21.30;;;19.00;;
77944;SDS011;67142;47.404;-1.384;2023-04-06T02:35:29;21.08;;;18.88;;
77944;SDS011;67142;47.404;-1.384;2023-04-06T02:37:56;20.58;;;18.48;;
77944;SDS011;67142;47.404;-1.384;2023-04-06T02:40:22;21.40;;;18.98;;
77944;SDS011;67142;47.404;-1.384;2023-04-06T02:42:48;21.23;;;19.03;;
77944;SDS011;67142;47.404;-1.384;2023-04-06T02:45:14;20.55;;;18.52;;
77944;SDS011;67142;47.404;-1.384;2023-04-06T02:47:41;21.98;;;19.02;;
77944;SDS011;67142;47.404;-1.384;2023-04-06T02:50:07;20.63;;;18.50;;
77944;SDS011;67142;47.404;-1.384;2023-04-06T02:52:33;21.65;;;19.45;;
77944;SDS011;67142;47.404;-1.384;2023-04-06T02:55:00;21.10;;;18.87;;
77944;SDS011;67142;47.404;-1.384;2023-04-06T02:57:26;20.90;;;18.70;;
77944;SDS011;67142;47.404;-1.384;2023-04-06T02:59:52;20.60;;;18.40;;
77944;SDS011;67142;47.404;-1.384;2023-04-06T03:02:18;21.02;;;18.55;;
77944;SDS011;67142;47.404;-1.384;2023-04-06T03:04:44;21.75;;;19.45;;
77944;SDS011;67142;47.404;-1.384;2023-04-06T03:07:10;19.60;;;17.67;;
77944;SDS011;67142;47.404;-1.384;2023-04-06T03:09:37;20.77;;;18.05;;
77944;SDS011;67142;47.404;-1.384;2023-04-06T03:12:03;21.48;;;19.17;;
77944;SDS011;67142;47.404;-1.384;2023-04-06T03:14:29;20.85;;;18.65;;
77944;SDS011;67142;47.404;-1.384;2023-04-06T03:16:55;21.58;;;19.10;;
77944;SDS011;67142;47.404;-1.384;2023-04-06T03:19:21;20.97;;;18.13;;
77944;SDS011;67142;47.404;-1.384;2023-04-06T03:21:47;21.13;;;18.92;;
77944;SDS011;67142;47.404;-1.384;2023-04-06T03:24:13;21.00;;;18.83;;
77944;SDS011;67142;47.404;-1.384;2023-04-06T03:26:39;21.38;;;18.88;;
77944;SDS011;67142;47.404;-1.384;2023-04-06T03:29:05;20.33;;;18.33;;
77944;SDS011;67142;47.404;-1.384;2023-04-06T03:31:32;21.90;;;18.73;;
77944;SDS011;67142;47.404;-1.384;2023-04-06T03:33:58;20.23;;;18.23;;
77944;SDS011;67142;47.404;-1.384;2023-04-06T03:36:24;20.73;;;18.55;;
77944;SDS011;67142;47.404;-1.384;2023-04-06T03:38:51;19.85;;;17.83;;
77944;SDS011;67142;47.404;-1.384;2023-04-06T03:41:18;21.13;;;18.92;;
77944;SDS011;67142;47.404;-1.384;2023-04-06T03:43:44;20.17;;;18.07;;
77944;SDS011;67142;47.404;-1.384;2023-04-06T03:46:10;20.15;;;18.05;;
77944;SDS011;67142;47.404;-1.384;2023-04-06T03:48:36;21.30;;;18.70;;
77944;SDS011;67142;47.404;-1.384;2023-04-06T03:51:03;19.95;;;17.85;;
77944;SDS011;67142;47.404;-1.384;2023-04-06T03:53:29;20.02;;;17.92;;
77944;SDS011;67142;47.404;-1.384;2023-04-06T03:55:55;19.73;;;17.73;;
77944;SDS011;67142;47.404;-1.384;2023-04-06T03:58:21;19.92;;;17.95;;
77944;SDS011;67142;47.404;-1.384;2023-04-06T04:00:47;20.50;;;18.50;;
77944;SDS011;67142;47.404;-1.384;2023-04-06T04:03:13;19.63;;;17.58;;
77944;SDS011;67142;47.404;-1.384;2023-04-06T04:05:39;20.27;;;18.15;;
77944;SDS011;67142;47.404;-1.384;2023-04-06T04:08:05;20.07;;;18.07;;
77944;SDS011;67142;47.404;-1.384;2023-04-06T04:10:32;20.85;;;17.98;;
77944;SDS011;67142;47.404;-1.384;2023-04-06T04:12:58;20.38;;;18.23;;
77944;SDS011;67142;47.404;-1.384;2023-04-06T04:15:24;20.50;;;18.40;;
77944;SDS011;67142;47.404;-1.384;2023-04-06T04:17:50;20.50;;;18.45;;
77944;SDS011;67142;47.404;-1.384;2023-04-06T04:20:16;20.27;;;17.70;;
77944;SDS011;67142;47.404;-1.384;2023-04-06T04:22:42;20.65;;;18.35;;
77944;SDS011;67142;47.404;-1.384;2023-04-06T04:25:08;20.30;;;18.20;;
77944;SDS011;67142;47.404;-1.384;2023-04-06T04:27:35;19.42;;;17.48;;
77944;SDS011;67142;47.404;-1.384;2023-04-06T04:30:01;19.38;;;17.48;;
77944;SDS011;67142;47.404;-1.384;2023-04-06T04:32:27;19.53;;;17.57;;
77944;SDS011;67142;47.404;-1.384;2023-04-06T04:34:53;21.00;;;18.27;;
77944;SDS011;67142;47.404;-1.384;2023-04-06T04:37:19;20.83;;;18.77;;
77944;SDS011;67142;47.404;-1.384;2023-04-06T04:39:45;20.25;;;18.10;;
77944;SDS011;67142;47.404;-1.384;2023-04-06T04:42:11;19.80;;;18.00;;
77944;SDS011;67142;47.404;-1.384;2023-04-06T04:44:38;19.60;;;17.70;;
77944;SDS011;67142;47.404;-1.384;2023-04-06T04:47:04;19.90;;;18.00;;
77944;SDS011;67142;47.404;-1.384;2023-04-06T04:49:30;20.08;;;17.98;;
77944;SDS011;67142;47.404;-1.384;2023-04-06T04:51:56;19.67;;;17.77;;
77944;SDS011;67142;47.404;-1.384;2023-04-06T04:54:22;20.52;;;18.52;;
77944;SDS011;67142;47.404;-1.384;2023-04-06T04:56:48;20.37;;;18.37;;
77944;SDS011;67142;47.404;-1.384;2023-04-06T04:59:15;20.02;;;18.02;;
77944;SDS011;67142;47.404;-1.384;2023-04-06T05:01:41;20.98;;;18.77;;
77944;SDS011;67142;47.404;-1.384;2023-04-06T05:04:07;20.83;;;18.73;;
77944;SDS011;67142;47.404;-1.384;2023-04-06T05:06:33;20.05;;;18.08;;
77944;SDS011;67142;47.404;-1.384;2023-04-06T05:08:59;19.70;;;17.53;;
77944;SDS011;67142;47.404;-1.384;2023-04-06T05:11:25;20.20;;;18.20;;
77944;SDS011;67142;47.404;-1.384;2023-04-06T05:13:51;21.60;;;18.00;;
77944;SDS011;67142;47.404;-1.384;2023-04-06T05:16:17;20.27;;;18.17;;
77944;SDS011;67142;47.404;-1.384;2023-04-06T05:18:43;20.35;;;18.27;;
77944;SDS011;67142;47.404;-1.384;2023-04-06T05:21:10;20.50;;;18.40;;
77944;SDS011;67142;47.404;-1.384;2023-04-06T05:23:36;20.65;;;18.48;;
77944;SDS011;67142;47.404;-1.384;2023-04-06T05:26:02;20.52;;;18.33;;
77944;SDS011;67142;47.404;-1.384;2023-04-06T05:28:29;20.83;;;18.55;;
77944;SDS011;67142;47.404;-1.384;2023-04-06T05:30:55;19.98;;;17.65;;
77944;SDS011;67142;47.404;-1.384;2023-04-06T05:33:22;20.43;;;18.33;;
77944;SDS011;67142;47.404;-1.384;2023-04-06T05:35:48;19.92;;;17.92;;
77944;SDS011;67142;47.404;-1.384;2023-04-06T05:38:16;20.52;;;18.25;;
77944;SDS011;67142;47.404;-1.384;2023-04-06T05:40:42;22.85;;;18.83;;
77944;SDS011;67142;47.404;-1.384;2023-04-06T05:43:08;21.45;;;19.25;;
77944;SDS011;67142;47.404;-1.384;2023-04-06T05:45:34;24.37;;;18.80;;
77944;SDS011;67142;47.404;-1.384;2023-04-06T05:48:00;21.25;;;18.70;;
77944;SDS011;67142;47.404;-1.384;2023-04-06T05:50:27;20.95;;;18.85;;
77944;SDS011;67142;47.404;-1.384;2023-04-06T05:52:53;20.80;;;18.02;;
77944;SDS011;67142;47.404;-1.384;2023-04-06T05:55:19;20.77;;;18.63;;
77944;SDS011;67142;47.404;-1.384;2023-04-06T05:57:45;24.73;;;19.10;;
77944;SDS011;67142;47.404;-1.384;2023-04-06T06:00:12;20.77;;;18.48;;
77944;SDS011;67142;47.404;-1.384;2023-04-06T06:02:38;22.52;;;19.42;;
77944;SDS011;67142;47.404;-1.384;2023-04-06T06:05:04;21.52;;;19.23;;
77944;SDS011;67142;47.404;-1.384;2023-04-06T06:07:30;24.90;;;19.30;;
77944;SDS011;67142;47.404;-1.384;2023-04-06T06:09:57;23.90;;;18.70;;
77944;SDS011;67142;47.404;-1.384;2023-04-06T06:12:23;23.13;;;18.90;;
77944;SDS011;67142;47.404;-1.384;2023-04-06T06:14:49;20.83;;;18.63;;
77944;SDS011;67142;47.404;-1.384;2023-04-06T06:17:15;19.85;;;17.80;;
77944;SDS011;67142;47.404;-1.384;2023-04-06T06:19:41;23.77;;;18.75;;
77944;SDS011;67142;47.404;-1.384;2023-04-06T06:22:07;21.30;;;18.87;;
77944;SDS011;67142;47.404;-1.384;2023-04-06T06:24:33;24.77;;;18.80;;
77944;SDS011;67142;47.404;-1.384;2023-04-06T06:27:00;22.00;;;19.23;;
77944;SDS011;67142;47.404;-1.384;2023-04-06T06:29:26;22.95;;;19.50;;
77944;SDS011;67142;47.404;-1.384;2023-04-06T06:31:52;22.50;;;18.92;;
77944;SDS011;67142;47.404;-1.384;2023-04-06T06:34:18;22.77;;;19.70;;
77944;SDS011;67142;47.404;-1.384;2023-04-06T06:36:44;22.42;;;19.98;;
77944;SDS011;67142;47.404;-1.384;2023-04-06T06:39:10;22.75;;;19.83;;
77944;SDS011;67142;47.404;-1.384;2023-04-06T06:41:36;22.70;;;20.30;;
77944;SDS011;67142;47.404;-1.384;2023-04-06T06:44:02;24.08;;;20.20;;
77944;SDS011;67142;47.404;-1.384;2023-04-06T06:46:28;25.03;;;20.30;;
77944;SDS011;67142;47.404;-1.384;2023-04-06T06:48:54;24.17;;;20.25;;
77944;SDS011;67142;47.404;-1.384;2023-04-06T06:51:20;30.02;;;21.30;;
77944;SDS011;67142;47.404;-1.384;2023-04-06T06:53:47;24.45;;;20.58;;
77944;SDS011;67142;47.404;-1.384;2023-04-06T06:56:13;24.20;;;20.90;;
77944;SDS011;67142;47.404;-1.384;2023-04-06T06:58:39;28.50;;;20.07;;
77944;SDS011;67142;47.404;-1.384;2023-04-06T07:01:05;25.65;;;21.27;;
77944;SDS011;67142;47.404;-1.384;2023-04-06T07:03:32;26.30;;;20.08;;
77944;SDS011;67142;47.404;-1.384;2023-04-06T07:05:58;30.83;;;20.83;;
77944;SDS011;67142;47.404;-1.384;2023-04-06T07:08:24;24.67;;;20.83;;
77944;SDS011;67142;47.404;-1.384;2023-04-06T07:10:50;25.10;;;20.27;;
77944;SDS011;67142;47.404;-1.384;2023-04-06T07:13:23;23.60;;;20.02;;
77944;SDS011;67142;47.404;-1.384;2023-04-06T07:15:51;23.85;;;19.25;;
77944;SDS011;67142;47.404;-1.384;2023-04-06T07:18:18;23.38;;;19.63;;
77944;SDS011;67142;47.404;-1.384;2023-04-06T07:20:44;23.73;;;20.25;;
77944;SDS011;67142;47.404;-1.384;2023-04-06T07:23:10;23.33;;;19.60;;
77944;SDS011;67142;47.404;-1.384;2023-04-06T07:25:36;26.05;;;19.30;;
77944;SDS011;67142;47.404;-1.384;2023-04-06T07:28:03;22.15;;;19.83;;
77944;SDS011;67142;47.404;-1.384;2023-04-06T07:30:29;21.73;;;19.40;;
77944;SDS011;67142;47.404;-1.384;2023-04-06T07:32:55;22.35;;;19.95;;
77944;SDS011;67142;47.404;-1.384;2023-04-06T07:35:25;21.17;;;18.90;;
77944;SDS011;67142;47.404;-1.384;2023-04-06T07:37:51;20.80;;;18.52;;
77944;SDS011;67142;47.404;-1.384;2023-04-06T07:40:18;21.58;;;19.27;;
77944;SDS011;67142;47.404;-1.384;2023-04-06T07:42:44;23.75;;;18.92;;
77944;SDS011;67142;47.404;-1.384;2023-04-06T07:45:11;23.38;;;19.67;;
77944;SDS011;67142;47.404;-1.384;2023-04-06T07:47:37;21.03;;;18.93;;
77944;SDS011;67142;47.404;-1.384;2023-04-06T07:50:03;22.20;;;19.50;;
77944;SDS011;67142;47.404;-1.384;2023-04-06T07:52:29;22.50;;;20.23;;
77944;SDS011;67142;47.404;-1.384;2023-04-06T07:54:57;24.02;;;18.85;;
77944;SDS011;67142;47.404;-1.384;2023-04-06T07:57:23;23.13;;;19.90;;
77944;SDS011;67142;47.404;-1.384;2023-04-06T07:59:49;24.13;;;18.97;;
77944;SDS011;67142;47.404;-1.384;2023-04-06T08:02:15;21.95;;;18.40;;
77944;SDS011;67142;47.404;-1.384;2023-04-06T08:04:41;22.02;;;19.73;;
77944;SDS011;67142;47.404;-1.384;2023-04-06T08:07:07;22.90;;;19.17;;
77944;SDS011;67142;47.404;-1.384;2023-04-06T08:09:33;22.35;;;19.80;;
77944;SDS011;67142;47.404;-1.384;2023-04-06T08:11:59;23.53;;;19.90;;
77944;SDS011;67142;47.404;-1.384;2023-04-06T08:14:25;23.98;;;19.83;;
77944;SDS011;67142;47.404;-1.384;2023-04-06T08:16:51;21.73;;;19.52;;
77944;SDS011;67142;47.404;-1.384;2023-04-06T08:19:18;21.58;;;18.75;;
77944;SDS011;67142;47.404;-1.384;2023-04-06T08:21:44;25.50;;;18.65;;
77944;SDS011;67142;47.404;-1.384;2023-04-06T08:24:11;20.37;;;18.27;;
77944;SDS011;67142;47.404;-1.384;2023-04-06T08:26:37;23.30;;;18.73;;
77944;SDS011;67142;47.404;-1.384;2023-04-06T08:29:03;20.92;;;18.63;;
77944;SDS011;67142;47.404;-1.384;2023-04-06T08:31:32;20.05;;;17.95;;
77944;SDS011;67142;47.404;-1.384;2023-04-06T08:33:58;20.00;;;18.05;;
77944;SDS011;67142;47.404;-1.384;2023-04-06T08:36:24;20.47;;;18.47;;
77944;SDS011;67142;47.404;-1.384;2023-04-06T08:38:50;21.50;;;19.17;;
77944;SDS011;67142;47.404;-1.384;2023-04-06T08:41:17;20.80;;;18.70;;
77944;SDS011;67142;47.404;-1.384;2023-04-06T08:43:44;20.60;;;18.40;;
77944;SDS011;67142;47.404;-1.384;2023-04-06T08:46:12;20.48;;;18.35;;
77944;SDS011;67142;47.404;-1.384;2023-04-06T08:48:38;19.70;;;17.80;;
77944;SDS011;67142;47.404;-1.384;2023-04-06T08:51:05;20.02;;;17.90;;
77944;SDS011;67142;47.404;-1.384;2023-04-06T08:53:31;19.83;;;17.83;;
77944;SDS011;67142;47.404;-1.384;2023-04-06T08:55:58;20.00;;;17.90;;
77944;SDS011;67142;47.404;-1.384;2023-04-06T08:58:25;19.55;;;17.55;;
77944;SDS011;67142;47.404;-1.384;2023-04-06T09:00:52;19.73;;;17.73;;
77944;SDS011;67142;47.404;-1.384;2023-04-06T09:03:18;18.45;;;16.25;;
77944;SDS011;67142;47.404;-1.384;2023-04-06T09:05:45;20.02;;;17.80;;
77944;SDS011;67142;47.404;-1.384;2023-04-06T09:08:12;18.00;;;16.30;;
77944;SDS011;67142;47.404;-1.384;2023-04-06T09:10:40;18.17;;;16.38;;
77944;SDS011;67142;47.404;-1.384;2023-04-06T09:13:06;18.20;;;16.43;;
77944;SDS011;67142;47.404;-1.384;2023-04-06T09:15:32;20.45;;;17.02;;
77944;SDS011;67142;47.404;-1.384;2023-04-06T09:17:59;19.65;;;17.55;;
77944;SDS011;67142;47.404;-1.384;2023-04-06T09:20:25;19.10;;;17.10;;
77944;SDS011;67142;47.404;-1.384;2023-04-06T09:22:53;18.77;;;16.85;;
77944;SDS011;67142;47.404;-1.384;2023-04-06T09:25:23;18.90;;;17.00;;
77944;SDS011;67142;47.404;-1.384;2023-04-06T09:28:03;20.42;;;16.73;;
77944;SDS011;67142;47.404;-1.384;2023-04-06T09:30:29;18.95;;;17.10;;
77944;SDS011;67142;47.404;-1.384;2023-04-06T09:32:56;21.02;;;17.40;;
77944;SDS011;67142;47.404;-1.384;2023-04-06T09:35:23;19.52;;;17.48;;
77944;SDS011;67142;47.404;-1.384;2023-04-06T09:37:51;19.13;;;17.23;;
77944;SDS011;67142;47.404;-1.384;2023-04-06T09:40:17;18.98;;;16.98;;
77944;SDS011;67142;47.404;-1.384;2023-04-06T09:42:47;19.88;;;17.77;;
77944;SDS011;67142;47.404;-1.384;2023-04-06T09:45:15;20.13;;;17.90;;
77944;SDS011;67142;47.404;-1.384;2023-04-06T09:47:45;19.15;;;17.20;;
77944;SDS011;67142;47.404;-1.384;2023-04-06T09:50:12;19.00;;;16.93;;
77944;SDS011;67142;47.404;-1.384;2023-04-06T09:52:48;17.42;;;15.82;;
77944;SDS011;67142;47.404;-1.384;2023-04-06T09:55:40;18.38;;;16.10;;
77944;SDS011;67142;47.404;-1.384;2023-04-06T09:58:05;17.70;;;16.08;;
77944;SDS011;67142;47.404;-1.384;2023-04-06T10:00:32;18.23;;;16.48;;
77944;SDS011;67142;47.404;-1.384;2023-04-06T10:03:01;17.47;;;15.73;;
77944;SDS011;67142;47.404;-1.384;2023-04-06T10:05:43;17.45;;;15.75;;
77944;SDS011;67142;47.404;-1.384;2023-04-06T10:08:09;18.02;;;16.33;;
77944;SDS011;67142;47.404;-1.384;2023-04-06T10:10:36;18.20;;;16.10;;
77944;SDS011;67142;47.404;-1.384;2023-04-06T10:13:02;18.05;;;16.23;;
77944;SDS011;67142;47.404;-1.384;2023-04-06T10:15:29;18.23;;;16.43;;
77944;SDS011;67142;47.404;-1.384;2023-04-06T10:17:58;18.70;;;16.90;;
77944;SDS011;67142;47.404;-1.384;2023-04-06T10:25:29;18.33;;;16.52;;
77944;SDS011;67142;47.404;-1.384;2023-04-06T10:28:14;17.17;;;15.57;;
77944;SDS011;67142;47.404;-1.384;2023-04-06T10:30:41;16.67;;;15.07;;
77944;SDS011;67142;47.404;-1.384;2023-04-06T10:33:15;16.60;;;15.02;;
77944;SDS011;67142;47.404;-1.384;2023-04-06T10:35:41;16.88;;;15.38;;
77944;SDS011;67142;47.404;-1.384;2023-04-06T10:38:07;17.30;;;15.55;;
77944;SDS011;67142;47.404;-1.384;2023-04-06T10:40:37;16.30;;;14.87;;
77944;SDS011;67142;47.404;-1.384;2023-04-06T10:43:13;15.25;;;13.95;;
77944;SDS011;67142;47.404;-1.384;2023-04-06T10:45:40;15.20;;;13.75;;
77944;SDS011;67142;47.404;-1.384;2023-04-06T10:50:41;15.43;;;14.05;;
77944;SDS011;67142;47.404;-1.384;2023-04-06T10:53:07;14.90;;;13.43;;
77944;SDS011;67142;47.404;-1.384;2023-04-06T10:55:33;15.52;;;14.05;;
77944;SDS011;67142;47.404;-1.384;2023-04-06T10:58:00;14.95;;;13.57;;
77944;SDS011;67142;47.404;-1.384;2023-04-06T11:00:26;14.90;;;13.55;;
77944;SDS011;67142;47.404;-1.384;2023-04-06T11:02:58;14.90;;;13.60;;
77944;SDS011;67142;47.404;-1.384;2023-04-06T11:05:25;14.60;;;13.20;;
77944;SDS011;67142;47.404;-1.384;2023-04-06T11:07:51;14.82;;;13.55;;
77944;SDS011;67142;47.404;-1.384;2023-04-06T11:10:21;15.10;;;13.60;;
77944;SDS011;67142;47.404;-1.384;2023-04-06T11:12:52;14.70;;;13.50;;
77944;SDS011;67142;47.404;-1.384;2023-04-06T11:15:18;14.48;;;13.15;;
77944;SDS011;67142;47.404;-1.384;2023-04-06T11:17:44;13.83;;;12.73;;
77944;SDS011;67142;47.404;-1.384;2023-04-06T11:20:11;15.02;;;13.63;;
77944;SDS011;67142;47.404;-1.384;2023-04-06T11:22:47;14.73;;;13.27;;
77944;SDS011;67142;47.404;-1.384;2023-04-06T11:25:13;15.50;;;14.10;;
77944;SDS011;67142;47.404;-1.384;2023-04-06T11:27:41;15.40;;;14.00;;
77944;SDS011;67142;47.404;-1.384;2023-04-06T11:30:08;14.77;;;13.47;;
77944;SDS011;67142;47.404;-1.384;2023-04-06T11:32:41;13.75;;;12.55;;
77944;SDS011;67142;47.404;-1.384;2023-04-06T11:35:19;13.60;;;12.40;;
77944;SDS011;67142;47.404;-1.384;2023-04-06T11:37:45;15.57;;;14.15;;
77944;SDS011;67142;47.404;-1.384;2023-04-06T11:40:11;16.25;;;14.68;;
77944;SDS011;67142;47.404;-1.384;2023-04-06T11:42:37;15.00;;;13.60;;
77944;SDS011;67142;47.404;-1.384;2023-04-06T11:45:04;15.80;;;14.30;;
77944;SDS011;67142;47.404;-1.384;2023-04-06T11:47:33;15.93;;;14.45;;
77944;SDS011;67142;47.404;-1.384;2023-04-06T11:50:09;16.02;;;14.63;;
77944;SDS011;67142;47.404;-1.384;2023-04-06T11:52:36;16.17;;;14.55;;
77944;SDS011;67142;47.404;-1.384;2023-04-06T11:55:12;15.67;;;14.27;;
77944;SDS011;67142;47.404;-1.384;2023-04-06T11:57:39;15.65;;;14.07;;
77944;SDS011;67142;47.404;-1.384;2023-04-06T12:00:05;16.00;;;14.50;;
77944;SDS011;67142;47.404;-1.384;2023-04-06T12:02:31;21.02;;;15.10;;
77944;SDS011;67142;47.404;-1.384;2023-04-06T12:04:58;16.35;;;14.80;;
77944;SDS011;67142;47.404;-1.384;2023-04-06T12:07:24;15.77;;;14.23;;
77944;SDS011;67142;47.404;-1.384;2023-04-06T12:09:50;15.65;;;14.25;;
77944;SDS011;67142;47.404;-1.384;2023-04-06T12:12:16;16.00;;;14.60;;
77944;SDS011;67142;47.404;-1.384;2023-04-06T12:14:42;18.27;;;15.57;;
77944;SDS011;67142;47.404;-1.384;2023-04-06T12:17:08;16.17;;;14.68;;
77944;SDS011;67142;47.404;-1.384;2023-04-06T12:19:34;16.10;;;14.50;;
77944;SDS011;67142;47.404;-1.384;2023-04-06T12:22:00;15.70;;;14.40;;
77944;SDS011;67142;47.404;-1.384;2023-04-06T12:24:27;16.70;;;15.20;;
77944;SDS011;67142;47.404;-1.384;2023-04-06T12:26:53;15.25;;;14.10;;
77944;SDS011;67142;47.404;-1.384;2023-04-06T12:29:20;15.77;;;14.57;;
77944;SDS011;67142;47.404;-1.384;2023-04-06T12:31:46;14.67;;;13.37;;
77944;SDS011;67142;47.404;-1.384;2023-04-06T12:34:12;14.70;;;13.60;;
77944;SDS011;67142;47.404;-1.384;2023-04-06T12:36:38;15.43;;;14.18;;
77944;SDS011;67142;47.404;-1.384;2023-04-06T12:39:04;14.70;;;13.55;;
77944;SDS011;67142;47.404;-1.384;2023-04-06T12:41:31;16.10;;;14.70;;
77944;SDS011;67142;47.404;-1.384;2023-04-06T12:43:57;15.20;;;14.00;;
77944;SDS011;67142;47.404;-1.384;2023-04-06T12:46:27;15.80;;;14.23;;
77944;SDS011;67142;47.404;-1.384;2023-04-06T12:48:55;16.35;;;15.00;;
77944;SDS011;67142;47.404;-1.384;2023-04-06T12:51:22;16.52;;;15.13;;
77944;SDS011;67142;47.404;-1.384;2023-04-06T12:53:48;15.35;;;14.05;;
77944;SDS011;67142;47.404;-1.384;2023-04-06T12:56:16;15.77;;;14.27;;
77944;SDS011;67142;47.404;-1.384;2023-04-06T12:58:42;15.43;;;14.02;;
77944;SDS011;67142;47.404;-1.384;2023-04-06T13:01:08;15.68;;;14.45;;
77944;SDS011;67142;47.404;-1.384;2023-04-06T13:03:36;14.55;;;13.40;;
77944;SDS011;67142;47.404;-1.384;2023-04-06T13:06:02;15.50;;;14.30;;
77944;SDS011;67142;47.404;-1.384;2023-04-06T13:08:28;15.50;;;14.10;;
77944;SDS011;67142;47.404;-1.384;2023-04-06T13:10:54;15.32;;;14.10;;
77944;SDS011;67142;47.404;-1.384;2023-04-06T13:13:25;14.98;;;13.77;;
77944;SDS011;67142;47.404;-1.384;2023-04-06T13:15:51;14.07;;;12.98;;
77944;SDS011;67142;47.404;-1.384;2023-04-06T13:18:17;14.13;;;13.02;;
77944;SDS011;67142;47.404;-1.384;2023-04-06T13:20:44;14.30;;;13.20;;
77944;SDS011;67142;47.404;-1.384;2023-04-06T13:23:10;14.20;;;13.00;;
77944;SDS011;67142;47.404;-1.384;2023-04-06T13:25:36;14.35;;;13.20;;
77944;SDS011;67142;47.404;-1.384;2023-04-06T13:28:02;14.85;;;13.57;;
77944;SDS011;67142;47.404;-1.384;2023-04-06T13:30:28;14.02;;;13.02;;
77944;SDS011;67142;47.404;-1.384;2023-04-06T13:32:54;14.53;;;13.43;;
77944;SDS011;67142;47.404;-1.384;2023-04-06T13:35:20;13.88;;;12.88;;
77944;SDS011;67142;47.404;-1.384;2023-04-06T13:37:47;13.55;;;12.55;;
77944;SDS011;67142;47.404;-1.384;2023-04-06T13:40:13;13.90;;;12.90;;
77944;SDS011;67142;47.404;-1.384;2023-04-06T13:42:40;14.13;;;13.10;;
77944;SDS011;67142;47.404;-1.384;2023-04-06T13:45:09;13.30;;;12.40;;
77944;SDS011;67142;47.404;-1.384;2023-04-06T13:47:35;13.98;;;12.98;;
77944;SDS011;67142;47.404;-1.384;2023-04-06T13:50:01;13.98;;;12.98;;
77944;SDS011;67142;47.404;-1.384;2023-04-06T13:52:28;14.27;;;13.27;;
77944;SDS011;67142;47.404;-1.384;2023-04-06T13:54:54;14.38;;;13.23;;
77944;SDS011;67142;47.404;-1.384;2023-04-06T13:57:20;14.37;;;13.23;;
77944;SDS011;67142;47.404;-1.384;2023-04-06T13:59:46;13.98;;;12.88;;
77944;SDS011;67142;47.404;-1.384;2023-04-06T14:02:14;14.63;;;13.48;;
77944;SDS011;67142;47.404;-1.384;2023-04-06T14:04:40;13.52;;;12.50;;
77944;SDS011;67142;47.404;-1.384;2023-04-06T14:07:06;13.50;;;12.57;;
77944;SDS011;67142;47.404;-1.384;2023-04-06T14:09:33;14.50;;;13.10;;
77944;SDS011;67142;47.404;-1.384;2023-04-06T14:11:59;14.05;;;13.05;;
77944;SDS011;67142;47.404;-1.384;2023-04-06T14:14:26;14.40;;;13.30;;